createdAt,value
2022-11-16T00:01:48.945Z,4.60
2022-11-16T00:04:32.092Z,4.76
2022-11-16T00:07:15.258Z,4.66
2022-11-16T00:09:59.765Z,4.73
2022-11-16T00:12:42.772Z,4.86
2022-11-16T00:15:26.859Z,5.02
2022-11-16T00:18:09.886Z,5.01
2022-11-16T00:20:52.987Z,5.09
2022-11-16T00:23:38.442Z,5.07
2022-11-16T00:26:23.171Z,4.88
2022-11-16T00:29:06.194Z,4.58
2022-11-16T00:31:50.124Z,4.49
2022-11-16T00:34:33.179Z,4.25
2022-11-16T00:37:16.196Z,4.15
2022-11-16T00:39:59.213Z,4.05
2022-11-16T00:42:43.571Z,4.05
2022-11-16T00:45:26.556Z,3.99
2022-11-16T00:48:09.607Z,3.97
2022-11-16T00:50:52.760Z,3.95
2022-11-16T00:53:36.692Z,3.89
2022-11-16T00:56:19.708Z,3.96
2022-11-16T00:59:04.166Z,3.88
2022-11-16T01:01:47.361Z,3.97
2022-11-16T01:04:30.506Z,3.91
2022-11-16T01:07:13.566Z,3.81
2022-11-16T01:09:56.642Z,3.81
2022-11-16T01:12:39.770Z,3.75
2022-11-16T01:15:26.995Z,3.74
2022-11-16T01:18:09.984Z,3.73
2022-11-16T01:20:54.374Z,3.64
2022-11-16T01:23:37.402Z,3.62
2022-11-16T01:26:20.653Z,3.66
2022-11-16T01:29:03.731Z,3.74
2022-11-16T01:31:48.178Z,3.80
2022-11-16T01:34:31.291Z,4.00
2022-11-16T01:37:14.304Z,4.05
2022-11-16T01:39:57.446Z,4.11
2022-11-16T01:42:40.701Z,4.18
2022-11-16T01:45:32.498Z,4.13
2022-11-16T01:48:23.314Z,4.09
2022-11-16T01:51:06.546Z,4.13
2022-11-16T01:53:49.674Z,4.25
2022-11-16T01:56:34.042Z,4.13
2022-11-16T01:59:18.665Z,4.28
2022-11-16T02:02:02.352Z,4.30
2022-11-16T02:04:48.874Z,4.20
2022-11-16T02:08:01.682Z,4.30
2022-11-16T02:10:59.867Z,4.40
2022-11-16T02:13:51.656Z,4.37
2022-11-16T02:16:44.421Z,4.32
2022-11-16T02:19:52.430Z,4.21
2022-11-16T02:22:49.537Z,4.06
2022-11-16T02:25:39.395Z,4.01
2022-11-16T02:28:34.425Z,4.06
2022-11-16T02:31:25.860Z,4.19
2022-11-16T02:34:12.276Z,4.33
2022-11-16T02:36:58.236Z,4.30
2022-11-16T02:39:43.095Z,4.35
2022-11-16T02:42:32.330Z,4.42
2022-11-16T02:45:21.373Z,4.46
2022-11-16T02:48:09.775Z,4.58
2022-11-16T02:50:54.540Z,4.70
2022-11-16T02:53:42.824Z,4.62
2022-11-16T02:56:26.729Z,4.70
2022-11-16T02:59:16.519Z,4.64
2022-11-16T03:02:14.958Z,4.55
2022-11-16T03:05:05.788Z,4.34
2022-11-16T03:07:53.430Z,4.32
2022-11-16T03:10:57.789Z,4.33
2022-11-16T03:13:42.742Z,4.36
2022-11-16T03:16:29.674Z,4.38
2022-11-16T03:19:15.772Z,4.32
2022-11-16T03:22:05.024Z,4.06
2022-11-16T03:24:48.891Z,4.18
2022-11-16T03:27:40.320Z,4.38
2022-11-16T03:30:25.658Z,4.49
2022-11-16T03:33:15.565Z,4.38
2022-11-16T03:36:04.910Z,4.44
2022-11-16T03:38:52.874Z,4.53
2022-11-16T03:41:38.726Z,4.49
2022-11-16T03:44:22.815Z,4.65
2022-11-16T03:47:06.011Z,4.52
2022-11-16T03:49:49.558Z,4.35
2022-11-16T03:52:32.797Z,4.33
2022-11-16T03:55:17.382Z,4.27
2022-11-16T03:58:00.400Z,4.29
2022-11-16T04:00:43.475Z,4.43
2022-11-16T04:03:26.546Z,4.33
2022-11-16T04:06:27.777Z,4.45
2022-11-16T04:09:28.332Z,4.47
2022-11-16T04:12:30.080Z,4.48
2022-11-16T04:15:30.576Z,4.28
2022-11-16T04:18:31.239Z,4.24
2022-11-16T04:21:37.488Z,4.24
2022-11-16T04:24:24.245Z,4.12
2022-11-16T04:27:27.847Z,4.25
2022-11-16T04:30:13.556Z,4.13
2022-11-16T04:33:13.682Z,4.31
2022-11-16T04:36:17.936Z,4.09
2022-11-16T04:39:03.676Z,4.35
2022-11-16T04:42:04.023Z,4.45
2022-11-16T04:45:04.850Z,4.49
2022-11-16T04:47:51.317Z,4.54
2022-11-16T04:50:35.011Z,4.53
2022-11-16T04:53:18.075Z,4.48
2022-11-16T04:56:01.224Z,4.52
2022-11-16T04:58:44.297Z,4.37
2022-11-16T05:01:41.196Z,4.14
2022-11-16T05:04:25.730Z,4.22
2022-11-16T05:07:11.259Z,4.23
2022-11-16T05:09:54.539Z,4.34
2022-11-16T05:12:37.655Z,4.45
2022-11-16T05:15:20.726Z,4.28
2022-11-16T05:18:03.768Z,4.19
2022-11-16T05:21:02.433Z,4.31
2022-11-16T05:24:02.570Z,4.22
2022-11-16T05:26:45.761Z,4.50
2022-11-16T05:29:28.882Z,4.51
2022-11-16T05:32:13.493Z,4.66
2022-11-16T05:34:56.544Z,4.76
2022-11-16T05:37:41.198Z,4.84
2022-11-16T05:40:24.206Z,4.91
2022-11-16T05:43:07.169Z,5.04
2022-11-16T05:45:50.178Z,4.72
2022-11-16T05:48:33.589Z,4.88
2022-11-16T05:51:16.813Z,5.07
2022-11-16T05:54:01.356Z,5.17
2022-11-16T05:56:44.504Z,5.23
2022-11-16T05:59:27.864Z,5.08
2022-11-16T06:02:10.861Z,5.00
2022-11-16T06:04:54.042Z,5.10
2022-11-16T06:07:37.232Z,5.09
2022-11-16T06:10:21.729Z,4.96
2022-11-16T06:13:04.851Z,5.04
2022-11-16T06:15:53.881Z,5.13
2022-11-16T06:18:38.852Z,5.06
2022-11-16T06:21:21.849Z,5.08
2022-11-16T06:24:09.050Z,5.12
2022-11-16T06:26:53.669Z,5.20
2022-11-16T06:29:36.721Z,5.29
2022-11-16T06:32:19.734Z,5.37
2022-11-16T06:35:02.787Z,5.53
2022-11-16T06:37:45.818Z,5.61
2022-11-16T06:40:28.874Z,5.59
2022-11-16T06:43:13.404Z,5.62
2022-11-16T06:45:58.499Z,5.56
2022-11-16T06:48:41.594Z,5.33
2022-11-16T06:51:24.574Z,5.67
2022-11-16T06:54:07.765Z,5.88
2022-11-16T06:56:50.883Z,5.93
2022-11-16T06:59:35.566Z,5.94
2022-11-16T07:02:21.397Z,5.90
2022-11-16T07:05:04.515Z,5.91
2022-11-16T07:07:47.593Z,6.07
2022-11-16T07:10:30.653Z,6.09
2022-11-16T07:13:13.981Z,6.10
2022-11-16T07:16:03.864Z,6.26
2022-11-16T07:18:46.884Z,6.32
2022-11-16T07:21:30.222Z,6.44
2022-11-16T07:24:13.268Z,6.47
2022-11-16T07:26:56.255Z,6.64
2022-11-16T07:29:39.308Z,6.65
2022-11-16T07:32:23.765Z,6.94
2022-11-16T07:35:07.782Z,7.18
2022-11-16T07:37:50.819Z,7.36
2022-11-16T07:40:33.837Z,7.21
2022-11-16T07:43:16.945Z,7.51
2022-11-16T07:46:30.327Z,7.75
2022-11-16T07:49:11.328Z,7.53
2022-11-16T07:51:54.821Z,7.77
2022-11-16T07:54:38.057Z,7.09
2022-11-16T07:57:21.097Z,7.13
2022-11-16T08:00:04.962Z,7.57
2022-11-16T08:02:47.949Z,7.76
2022-11-16T08:05:32.453Z,8.18
2022-11-16T08:08:15.489Z,8.15
2022-11-16T08:11:01.770Z,8.36
2022-11-16T08:13:45.088Z,8.39
2022-11-16T08:16:28.217Z,7.95
2022-11-16T08:19:11.517Z,8.47
2022-11-16T08:21:56.038Z,8.82
2022-11-16T08:24:39.089Z,8.88
2022-11-16T08:27:22.138Z,8.79
2022-11-16T08:30:09.898Z,8.78
2022-11-16T08:32:52.931Z,9.00
2022-11-16T08:35:36.388Z,8.87
2022-11-16T08:38:20.838Z,8.68
2022-11-16T08:41:03.934Z,8.73
2022-11-16T08:43:50.586Z,8.98
2022-11-16T08:46:33.786Z,8.67
2022-11-16T08:49:17.003Z,9.04
2022-11-16T08:52:00.220Z,9.56
2022-11-16T08:54:44.655Z,8.74
2022-11-16T08:57:27.725Z,9.05
2022-11-16T09:00:12.428Z,9.39
2022-11-16T09:02:55.478Z,9.84
2022-11-16T09:05:39.728Z,10.06
2022-11-16T09:08:22.773Z,9.19
2022-11-16T09:11:08.408Z,9.15
2022-11-16T09:13:53.878Z,9.15
2022-11-16T09:16:36.980Z,9.41
2022-11-16T09:19:20.623Z,9.62
2022-11-16T09:22:03.741Z,9.35
2022-11-16T09:24:46.753Z,9.30
2022-11-16T09:27:31.306Z,9.09
2022-11-16T09:30:14.953Z,8.98
2022-11-16T09:33:00.407Z,9.16
2022-11-16T09:35:43.600Z,8.99
2022-11-16T09:38:40.212Z,9.03
2022-11-16T09:41:53.238Z,9.07
2022-11-16T09:44:54.367Z,9.24
2022-11-16T09:47:49.119Z,9.51
2022-11-16T09:50:46.000Z,9.76
2022-11-16T09:53:35.379Z,10.37
2022-11-16T09:56:22.923Z,11.68
2022-11-16T09:59:17.946Z,12.43
2022-11-16T10:02:17.104Z,13.36
2022-11-16T10:05:05.050Z,13.10
2022-11-16T10:07:52.003Z,14.00
2022-11-16T10:10:38.966Z,14.71
2022-11-16T10:13:35.638Z,15.86
2022-11-16T10:16:24.033Z,19.39
2022-11-16T10:19:15.935Z,20.30
2022-11-16T10:22:08.353Z,22.49
2022-11-16T10:24:58.873Z,25.17
2022-11-16T10:28:03.127Z,26.67
2022-11-16T10:30:55.481Z,31.89
2022-11-16T10:33:41.112Z,33.47
2022-11-16T10:36:30.158Z,33.98
2022-11-16T10:39:18.213Z,29.31
2022-11-16T10:42:07.747Z,33.03
2022-11-16T10:44:58.849Z,36.15
2022-11-16T10:47:47.147Z,36.01
2022-11-16T10:50:38.543Z,35.23
2022-11-16T10:53:30.175Z,34.72
2022-11-16T10:56:19.010Z,35.64
2022-11-16T10:59:04.497Z,34.67
2022-11-16T11:01:51.090Z,35.28
2022-11-16T11:04:34.223Z,34.30
2022-11-16T11:07:29.764Z,32.74
2022-11-16T11:10:29.684Z,32.95
2022-11-16T11:13:27.748Z,34.19
2022-11-16T11:16:16.939Z,32.69
2022-11-16T11:19:18.797Z,29.61
2022-11-16T11:22:02.347Z,30.87
2022-11-16T11:24:49.640Z,33.38
2022-11-16T11:27:36.766Z,32.73
2022-11-16T11:30:22.301Z,27.87
2022-11-16T11:33:12.637Z,24.83
2022-11-16T11:36:06.863Z,22.44
2022-11-16T11:38:59.422Z,20.59
2022-11-16T11:41:47.085Z,19.89
2022-11-16T11:44:56.839Z,18.85
2022-11-16T11:47:58.983Z,18.23
2022-11-16T11:50:49.171Z,16.92
2022-11-16T11:53:48.236Z,16.81
2022-11-16T11:56:34.211Z,16.76
2022-11-16T11:59:21.644Z,16.50
2022-11-16T12:02:21.975Z,16.26
2022-11-16T12:05:42.933Z,15.88
2022-11-16T12:08:40.156Z,15.25
2022-11-16T12:11:32.345Z,15.09
2022-11-16T12:14:30.239Z,15.05
2022-11-16T12:17:20.733Z,14.70
2022-11-16T12:20:25.987Z,14.28
2022-11-16T12:23:23.119Z,13.63
2022-11-16T12:26:16.615Z,13.34
2022-11-16T12:29:14.303Z,13.20
2022-11-16T12:32:18.512Z,13.18
2022-11-16T12:35:27.570Z,13.04
2022-11-16T12:38:27.612Z,13.00
2022-11-16T12:41:38.797Z,12.95
2022-11-16T12:44:33.584Z,13.09
2022-11-16T12:47:29.140Z,13.09
2022-11-16T12:50:34.443Z,13.15
2022-11-16T12:53:52.785Z,13.09
2022-11-16T12:56:49.078Z,13.13
2022-11-16T12:59:47.738Z,13.26
2022-11-16T13:02:54.464Z,13.26
2022-11-16T13:05:53.754Z,13.30
2022-11-16T13:08:48.113Z,13.40
2022-11-16T13:11:35.135Z,13.29
2022-11-16T13:14:21.176Z,13.18
2022-11-16T13:17:05.836Z,13.15
2022-11-16T13:20:16.925Z,13.05
2022-11-16T13:23:04.169Z,13.07
2022-11-16T13:25:52.185Z,13.01
2022-11-16T13:28:41.080Z,12.88
2022-11-16T13:31:32.818Z,12.62
2022-11-16T13:34:21.637Z,12.47
2022-11-16T13:37:45.695Z,12.50
2022-11-16T13:40:31.224Z,12.47
2022-11-16T13:43:19.863Z,12.46
2022-11-16T13:46:02.985Z,12.57
2022-11-16T13:48:47.535Z,12.54
2022-11-16T13:51:30.655Z,12.50
2022-11-16T13:54:44.580Z,12.53
2022-11-16T13:57:24.392Z,12.53
2022-11-16T14:00:20.852Z,12.37
2022-11-16T14:03:27.802Z,12.43
2022-11-16T14:06:48.113Z,12.55
2022-11-16T14:09:45.019Z,12.33
2022-11-16T14:13:00.940Z,12.36
2022-11-16T14:15:44.004Z,12.41
2022-11-16T14:18:38.232Z,12.45
2022-11-16T14:21:39.313Z,12.23
2022-11-16T14:24:30.263Z,12.37
2022-11-16T14:27:30.298Z,12.42
2022-11-16T14:30:20.221Z,12.27
2022-11-16T14:33:03.724Z,12.18
2022-11-16T14:35:53.842Z,12.11
2022-11-16T14:38:39.557Z,12.04
2022-11-16T14:41:25.888Z,12.09
2022-11-16T14:44:11.871Z,12.09
2022-11-16T14:46:55.214Z,12.00
2022-11-16T14:49:48.266Z,11.99
2022-11-16T14:52:37.771Z,11.90
2022-11-16T14:55:22.886Z,11.75
2022-11-16T14:58:10.285Z,11.69
2022-11-16T15:00:58.076Z,11.75
2022-11-16T15:03:49.689Z,11.70
2022-11-16T15:06:40.215Z,11.67
2022-11-16T15:09:28.381Z,11.65
2022-11-16T15:12:33.792Z,11.54
2022-11-16T15:15:18.827Z,11.59
2022-11-16T15:18:14.953Z,11.48
2022-11-16T15:20:57.970Z,11.55
2022-11-16T15:24:02.131Z,11.54
2022-11-16T15:26:51.756Z,11.45
2022-11-16T15:29:34.825Z,11.47
2022-11-16T15:32:18.973Z,11.47
2022-11-16T15:35:05.441Z,11.39
2022-11-16T15:37:48.802Z,11.21
2022-11-16T15:40:32.081Z,11.35
2022-11-16T15:43:16.779Z,11.25
2022-11-16T15:46:00.980Z,11.35
2022-11-16T15:48:45.115Z,11.29
2022-11-16T15:51:32.335Z,11.25
2022-11-16T15:54:22.391Z,11.22
2022-11-16T15:57:10.303Z,11.21
2022-11-16T15:59:56.381Z,11.23
2022-11-16T16:02:39.494Z,11.26
2022-11-16T16:05:34.788Z,11.28
2022-11-16T16:08:35.351Z,11.26
2022-11-16T16:11:29.112Z,11.10
2022-11-16T16:14:22.387Z,11.19
2022-11-16T16:17:05.563Z,11.15
2022-11-16T16:19:56.139Z,11.13
2022-11-16T16:22:39.288Z,11.13
2022-11-16T16:25:32.414Z,11.11
2022-11-16T16:28:15.410Z,11.08
2022-11-16T16:30:58.438Z,11.09
2022-11-16T16:33:42.328Z,11.07
2022-11-16T16:36:25.339Z,11.02
2022-11-16T16:39:08.585Z,10.96
2022-11-16T16:41:53.018Z,10.91
2022-11-16T16:44:36.297Z,10.96
2022-11-16T16:47:21.331Z,10.86
2022-11-16T16:50:06.312Z,10.92
2022-11-16T16:52:49.717Z,11.02
2022-11-16T16:55:37.252Z,11.07
2022-11-16T16:58:22.316Z,10.98
2022-11-16T17:01:06.762Z,10.86
2022-11-16T17:03:50.603Z,10.89
2022-11-16T17:06:34.144Z,10.94
2022-11-16T17:09:17.576Z,10.79
2022-11-16T17:12:00.662Z,10.82
2022-11-16T17:14:52.355Z,10.88
2022-11-16T17:17:37.324Z,10.59
2022-11-16T17:20:20.452Z,10.61
2022-11-16T17:23:03.572Z,10.77
2022-11-16T17:25:46.713Z,10.80
2022-11-16T17:28:29.978Z,10.71
2022-11-16T17:31:15.089Z,10.79
2022-11-16T17:33:58.663Z,10.86
2022-11-16T17:36:41.668Z,10.85
2022-11-16T17:39:25.222Z,10.61
2022-11-16T17:42:09.415Z,10.56
2022-11-16T17:44:54.261Z,10.75
2022-11-16T17:47:39.228Z,10.72
2022-11-16T17:50:22.349Z,10.80
2022-11-16T17:53:05.736Z,10.75
2022-11-16T17:55:49.061Z,10.77
2022-11-16T17:58:32.903Z,10.62
2022-11-16T18:01:16.084Z,10.58
2022-11-16T18:04:01.103Z,10.64
2022-11-16T18:06:45.049Z,10.64
2022-11-16T18:09:28.392Z,10.43
2022-11-16T18:12:11.478Z,10.60
2022-11-16T18:15:21.296Z,10.59
2022-11-16T18:17:57.943Z,10.56
2022-11-16T18:20:42.507Z,10.37
2022-11-16T18:23:25.506Z,10.43
2022-11-16T18:26:09.996Z,10.41
2022-11-16T18:28:53.945Z,10.47
2022-11-16T18:31:37.043Z,10.48
2022-11-16T18:34:20.425Z,10.43
2022-11-16T18:37:04.945Z,10.16
2022-11-16T18:39:48.039Z,10.31
2022-11-16T18:42:31.120Z,9.99
2022-11-16T18:45:14.156Z,10.00
2022-11-16T18:47:57.244Z,10.12
2022-11-16T18:50:40.280Z,10.18
2022-11-16T18:53:25.076Z,10.06
2022-11-16T18:56:09.024Z,10.07
2022-11-16T18:58:53.109Z,10.06
2022-11-16T19:01:36.524Z,10.05
2022-11-16T19:04:19.586Z,10.14
2022-11-16T19:07:02.745Z,10.10
2022-11-16T19:09:47.390Z,10.24
2022-11-16T19:12:30.722Z,10.05
2022-11-16T19:15:14.258Z,10.02
2022-11-16T19:18:19.883Z,10.05
2022-11-16T19:21:07.715Z,10.17
2022-11-16T19:23:52.167Z,10.18
2022-11-16T19:26:36.613Z,10.24
2022-11-16T19:29:19.659Z,10.10
2022-11-16T19:32:02.788Z,10.12
2022-11-16T19:34:45.786Z,10.16
2022-11-16T19:37:29.258Z,10.01
2022-11-16T19:40:13.478Z,9.91
2022-11-16T19:42:58.410Z,9.95
2022-11-16T19:45:42.479Z,10.07
2022-11-16T19:48:25.510Z,9.98
2022-11-16T19:51:09.932Z,9.81
2022-11-16T19:53:53.245Z,9.69
2022-11-16T19:56:36.290Z,9.69
2022-11-16T19:59:20.980Z,9.50
2022-11-16T20:02:04.239Z,9.60
2022-11-16T20:04:47.438Z,9.69
2022-11-16T20:07:30.651Z,9.62
2022-11-16T20:10:13.789Z,9.63
2022-11-16T20:12:56.923Z,9.76
2022-11-16T20:15:41.397Z,9.73
2022-11-16T20:18:24.547Z,9.81
2022-11-16T20:21:08.717Z,9.89
2022-11-16T20:23:52.701Z,9.80
2022-11-16T20:26:37.625Z,9.87
2022-11-16T20:29:21.047Z,9.85
2022-11-16T20:32:05.624Z,9.75
2022-11-16T20:34:48.652Z,9.79
2022-11-16T20:37:31.650Z,9.85
2022-11-16T20:40:15.631Z,9.77
2022-11-16T20:43:00.255Z,9.78
2022-11-16T20:45:43.354Z,9.70
2022-11-16T20:48:27.780Z,9.79
2022-11-16T20:51:12.774Z,9.74
2022-11-16T20:53:56.223Z,9.71
2022-11-16T20:56:39.296Z,9.77
2022-11-16T20:59:22.289Z,9.73
2022-11-16T21:02:05.405Z,9.74
2022-11-16T21:04:49.836Z,9.81
2022-11-16T21:07:32.958Z,9.63
2022-11-16T21:10:21.936Z,9.62
2022-11-16T21:13:22.552Z,9.66
2022-11-16T21:16:08.205Z,9.63
2022-11-16T21:18:51.283Z,9.60
2022-11-16T21:21:35.923Z,9.63
2022-11-16T21:24:18.924Z,9.74
2022-11-16T21:27:01.914Z,9.77
2022-11-16T21:29:44.966Z,9.79
2022-11-16T21:32:28.022Z,9.81
2022-11-16T21:35:11.023Z,9.81
2022-11-16T21:37:55.400Z,9.85
2022-11-16T21:40:38.961Z,9.87
2022-11-16T21:43:22.182Z,9.88
2022-11-16T21:46:06.742Z,9.90
2022-11-16T21:48:51.316Z,9.90
2022-11-16T21:51:34.941Z,9.69
2022-11-16T21:54:19.481Z,9.84
2022-11-16T21:57:02.709Z,9.83
2022-11-16T21:59:45.726Z,9.82
2022-11-16T22:02:28.740Z,9.86
2022-11-16T22:05:29.203Z,9.92
2022-11-16T22:08:12.780Z,9.85
2022-11-16T22:10:57.220Z,9.79
2022-11-16T22:13:40.690Z,9.72
2022-11-16T22:16:24.381Z,9.74
2022-11-16T22:19:07.408Z,9.77
2022-11-16T22:21:50.392Z,9.80
2022-11-16T22:24:33.494Z,9.80
2022-11-16T22:27:18.905Z,9.66
2022-11-16T22:30:01.873Z,9.54
2022-11-16T22:32:46.028Z,9.60
2022-11-16T22:35:29.068Z,9.63
2022-11-16T22:38:12.068Z,9.51
2022-11-16T22:40:56.984Z,9.54
2022-11-16T22:43:41.624Z,9.60
2022-11-16T22:46:24.828Z,9.53
2022-11-16T22:49:07.918Z,9.61
2022-11-16T22:51:51.011Z,9.60
2022-11-16T22:54:34.703Z,9.42
2022-11-16T22:57:17.693Z,9.45
2022-11-16T23:00:02.143Z,9.46
2022-11-16T23:02:45.293Z,9.54
2022-11-16T23:05:28.361Z,9.41
2022-11-16T23:08:11.344Z,9.33
2022-11-16T23:11:18.723Z,9.40
2022-11-16T23:14:20.146Z,9.40
2022-11-16T23:17:05.092Z,9.31
2022-11-16T23:20:05.750Z,9.37
2022-11-16T23:23:06.104Z,9.36
2022-11-16T23:26:06.579Z,9.42
2022-11-16T23:28:49.592Z,9.41
2022-11-16T23:31:32.626Z,9.27
2022-11-16T23:34:16.993Z,9.39
2022-11-16T23:37:03.486Z,9.36
2022-11-16T23:39:46.482Z,9.44
2022-11-16T23:42:47.243Z,9.27
2022-11-16T23:45:30.256Z,9.20
2022-11-16T23:48:16.041Z,9.05
2022-11-16T23:51:00.498Z,9.16
2022-11-16T23:53:43.482Z,9.28
2022-11-16T23:56:26.518Z,9.17
2022-11-16T23:59:09.580Z,9.12
